createdAt,value
2023-01-05T00:01:39.749Z,11.70
2023-01-05T00:04:07.245Z,12.27
2023-01-05T00:06:34.835Z,11.88
2023-01-05T00:09:01.803Z,10.77
2023-01-05T00:11:47.287Z,8.95
2023-01-05T00:14:38.234Z,11.65
2023-01-05T00:17:24.857Z,11.50
2023-01-05T00:20:10.628Z,13.02
2023-01-05T00:22:45.759Z,11.50
2023-01-05T00:25:18.323Z,13.32
2023-01-05T00:27:48.072Z,13.48
2023-01-05T00:30:17.221Z,11.23
2023-01-05T00:32:44.046Z,13.55
2023-01-05T00:35:12.253Z,10.95
2023-01-05T00:37:39.617Z,11.50
2023-01-05T00:40:11.373Z,11.75
2023-01-05T00:42:38.868Z,10.35
2023-01-05T00:45:07.959Z,11.32
2023-01-05T00:47:34.818Z,13.15
2023-01-05T00:50:01.949Z,11.70
2023-01-05T00:52:28.642Z,11.40
2023-01-05T00:54:55.359Z,12.05
2023-01-05T00:57:22.497Z,10.98
2023-01-05T00:59:52.032Z,11.32
2023-01-05T01:02:20.235Z,12.02
2023-01-05T01:04:47.148Z,10.90
2023-01-05T01:07:13.911Z,10.73
2023-01-05T01:09:41.417Z,10.52
2023-01-05T01:12:08.254Z,9.00
2023-01-05T01:14:35.281Z,12.52
2023-01-05T01:17:02.166Z,13.40
2023-01-05T01:19:28.964Z,10.77
2023-01-05T01:21:55.758Z,13.40
2023-01-05T01:24:25.752Z,13.98
2023-01-05T01:26:53.409Z,13.57
2023-01-05T01:29:21.463Z,12.60
2023-01-05T01:31:49.938Z,11.63
2023-01-05T01:34:17.366Z,10.85
2023-01-05T01:36:44.667Z,10.85
2023-01-05T01:39:13.585Z,12.47
2023-01-05T01:41:45.869Z,12.23
2023-01-05T01:44:47.147Z,13.30
2023-01-05T01:47:28.671Z,11.63
2023-01-05T01:49:58.882Z,11.40
2023-01-05T01:52:27.951Z,12.27
2023-01-05T01:54:55.250Z,12.40
2023-01-05T01:57:25.603Z,12.30
2023-01-05T01:59:52.721Z,9.40
2023-01-05T02:02:22.772Z,13.20
2023-01-05T02:04:50.440Z,11.88
2023-01-05T02:07:17.172Z,12.43
2023-01-05T02:09:44.543Z,12.52
2023-01-05T02:12:54.815Z,12.27
2023-01-05T02:15:38.501Z,13.70
2023-01-05T02:18:46.889Z,9.77
2023-01-05T02:21:51.712Z,10.98
2023-01-05T02:24:34.829Z,15.20
2023-01-05T02:27:39.176Z,13.35
2023-01-05T02:30:34.578Z,11.30
2023-01-05T02:33:20.221Z,11.52
2023-01-05T02:36:28.493Z,12.30
2023-01-05T02:39:13.572Z,13.38
2023-01-05T02:41:58.069Z,12.23
2023-01-05T02:44:29.237Z,13.32
2023-01-05T02:47:07.935Z,12.10
2023-01-05T02:49:40.303Z,14.52
2023-01-05T02:52:09.631Z,11.20
2023-01-05T02:54:47.129Z,12.40
2023-01-05T02:57:42.637Z,13.13
2023-01-05T03:00:11.565Z,12.25
2023-01-05T03:02:42.280Z,12.40
2023-01-05T03:05:25.091Z,12.30
2023-01-05T03:08:06.741Z,13.07
2023-01-05T03:11:24.229Z,14.13
2023-01-05T03:13:57.758Z,13.88
2023-01-05T03:16:30.149Z,14.77
2023-01-05T03:19:20.961Z,16.55
2023-01-05T03:22:08.873Z,11.77
2023-01-05T03:25:00.657Z,12.10
2023-01-05T03:27:48.070Z,12.40
2023-01-05T03:34:55.238Z,11.63
2023-01-05T03:37:45.764Z,12.57
2023-01-05T03:40:22.972Z,12.65
2023-01-05T03:42:55.864Z,15.32
2023-01-05T03:45:32.199Z,12.95
2023-01-05T03:48:04.376Z,11.82
2023-01-05T03:50:37.277Z,13.10
2023-01-05T03:53:17.303Z,13.30
2023-01-05T03:55:46.872Z,11.37
2023-01-05T03:58:16.069Z,15.63
2023-01-05T04:00:49.575Z,14.23
2023-01-05T04:03:24.079Z,15.47
2023-01-05T04:05:55.153Z,14.27
2023-01-05T04:08:31.869Z,13.70
2023-01-05T04:11:18.826Z,14.70
2023-01-05T04:13:58.332Z,12.77
2023-01-05T04:16:28.682Z,16.73
2023-01-05T04:19:01.778Z,15.27
2023-01-05T04:21:30.053Z,13.30
2023-01-05T04:23:58.618Z,16.25
2023-01-05T04:26:30.193Z,14.68
2023-01-05T04:28:58.493Z,12.45
2023-01-05T04:31:32.264Z,13.23
2023-01-05T04:34:05.482Z,13.37
2023-01-05T04:36:35.801Z,16.95
2023-01-05T04:39:07.007Z,13.43
2023-01-05T04:41:38.111Z,14.03
2023-01-05T04:44:06.752Z,14.10
2023-01-05T04:46:36.003Z,15.52
2023-01-05T04:49:09.755Z,14.50
2023-01-05T04:51:40.037Z,14.50
2023-01-05T04:54:09.897Z,14.88
2023-01-05T04:56:39.046Z,12.40
2023-01-05T04:59:08.386Z,13.70
2023-01-05T05:01:37.629Z,14.43
2023-01-05T05:04:16.616Z,13.38
2023-01-05T05:06:47.628Z,13.65
2023-01-05T05:09:15.627Z,14.85
2023-01-05T05:11:42.775Z,14.90
2023-01-05T05:14:11.978Z,17.05
2023-01-05T05:16:49.425Z,13.77
2023-01-05T05:19:19.605Z,13.57
2023-01-05T05:21:49.867Z,16.48
2023-01-05T05:24:18.232Z,14.13
2023-01-05T05:26:50.394Z,14.27
2023-01-05T05:29:20.835Z,14.88
2023-01-05T05:31:48.895Z,13.55
2023-01-05T05:34:19.571Z,13.27
2023-01-05T05:36:55.235Z,16.20
2023-01-05T05:39:23.338Z,14.10
2023-01-05T05:41:51.550Z,14.93
2023-01-05T05:44:20.022Z,15.00
2023-01-05T05:46:54.020Z,14.40
2023-01-05T05:49:24.177Z,11.75
2023-01-05T05:51:56.585Z,10.73
2023-01-05T05:54:29.542Z,13.48
2023-01-05T05:56:57.587Z,12.18
2023-01-05T05:59:28.659Z,13.00
2023-01-05T06:02:01.653Z,13.07
2023-01-05T06:04:30.292Z,13.13
2023-01-05T06:07:00.451Z,12.23
2023-01-05T06:09:29.565Z,14.32
2023-01-05T06:12:00.437Z,12.70
2023-01-05T06:14:30.081Z,13.00
2023-01-05T06:17:02.682Z,14.63
2023-01-05T06:19:32.194Z,11.95
2023-01-05T06:22:01.695Z,14.63
2023-01-05T06:24:31.320Z,15.35
2023-01-05T06:27:04.349Z,13.75
2023-01-05T06:29:31.450Z,14.35
2023-01-05T06:31:59.632Z,11.57
2023-01-05T06:34:27.057Z,13.30
2023-01-05T06:37:02.953Z,13.05
2023-01-05T06:39:31.491Z,14.30
2023-01-05T06:42:01.280Z,15.85
2023-01-05T06:44:30.317Z,15.25
2023-01-05T06:46:57.372Z,11.60
2023-01-05T06:49:26.432Z,12.47
2023-01-05T06:51:54.693Z,14.90
2023-01-05T06:54:28.171Z,11.57
2023-01-05T06:57:08.632Z,12.77
2023-01-05T06:59:38.809Z,13.97
2023-01-05T07:02:17.017Z,12.93
2023-01-05T07:04:45.753Z,15.48
2023-01-05T07:07:15.232Z,14.13
2023-01-05T07:09:45.081Z,14.37
2023-01-05T07:12:13.079Z,13.82
2023-01-05T07:14:45.377Z,13.40
2023-01-05T07:17:15.546Z,15.15
2023-01-05T07:20:08.154Z,13.05
2023-01-05T07:22:38.250Z,14.40
2023-01-05T07:25:06.739Z,16.73
2023-01-05T07:27:40.190Z,13.35
2023-01-05T07:30:08.885Z,12.80
2023-01-05T07:32:37.374Z,14.43
2023-01-05T07:35:04.621Z,13.45
2023-01-05T07:37:35.649Z,13.25
2023-01-05T07:40:07.293Z,13.10
2023-01-05T07:42:34.449Z,12.52
2023-01-05T07:45:06.880Z,11.43
2023-01-05T07:47:35.192Z,12.45
2023-01-05T07:50:03.380Z,10.98
2023-01-05T07:52:39.348Z,12.63
2023-01-05T07:55:07.160Z,14.93
2023-01-05T07:57:35.309Z,12.52
2023-01-05T08:00:06.594Z,12.10
2023-01-05T08:02:55.250Z,11.60
2023-01-05T08:05:26.343Z,11.27
2023-01-05T08:07:56.330Z,12.32
2023-01-05T08:10:37.054Z,10.68
2023-01-05T08:13:33.923Z,13.55
2023-01-05T08:16:02.113Z,10.25
2023-01-05T08:18:39.907Z,14.50
2023-01-05T08:21:37.862Z,11.30
2023-01-05T08:27:05.504Z,13.32
2023-01-05T08:30:20.887Z,12.68
2023-01-05T08:32:55.056Z,11.88
2023-01-05T08:35:22.569Z,14.82
2023-01-05T08:37:53.141Z,11.45
2023-01-05T08:40:29.111Z,10.60
2023-01-05T08:43:10.624Z,13.05
2023-01-05T08:45:39.319Z,9.93
2023-01-05T08:48:09.259Z,12.93
2023-01-05T08:50:40.662Z,11.35
2023-01-05T08:53:10.427Z,10.50
2023-01-05T08:55:59.590Z,16.45
2023-01-05T08:58:49.491Z,14.10
2023-01-05T09:01:24.784Z,19.35
2023-01-05T09:07:23.090Z,17.23
2023-01-05T09:10:02.776Z,13.35
2023-01-05T09:12:38.614Z,12.95
2023-01-05T09:15:11.637Z,15.90
2023-01-05T09:17:48.179Z,15.23
2023-01-05T09:20:40.170Z,15.82
2023-01-05T09:23:50.566Z,13.10
2023-01-05T09:30:10.809Z,14.25
2023-01-05T09:33:09.923Z,15.10
2023-01-05T09:39:21.235Z,15.57
2023-01-05T09:42:13.556Z,11.63
2023-01-05T09:44:55.417Z,13.23
2023-01-05T09:47:52.450Z,15.27
2023-01-05T09:50:50.375Z,15.20
2023-01-05T09:53:30.529Z,15.20
2023-01-05T09:56:58.566Z,15.50
2023-01-05T09:59:16.563Z,14.38
2023-01-05T10:01:50.585Z,14.48
2023-01-05T10:04:28.593Z,16.08
2023-01-05T10:07:05.952Z,14.40
2023-01-05T10:09:48.789Z,17.48
2023-01-05T10:12:54.349Z,14.00
2023-01-05T10:15:26.924Z,14.60
2023-01-05T10:18:23.232Z,12.30
2023-01-05T10:21:08.792Z,14.15
2023-01-05T10:23:55.996Z,12.13
2023-01-05T10:27:22.954Z,12.88
2023-01-05T10:29:33.768Z,13.73
2023-01-05T10:32:28.936Z,13.10
2023-01-05T10:35:41.900Z,14.75
2023-01-05T10:38:38.803Z,14.25
2023-01-05T10:41:35.478Z,14.23
2023-01-05T10:44:24.286Z,14.23
2023-01-05T10:46:52.954Z,13.93
2023-01-05T10:49:27.096Z,15.27
2023-01-05T10:51:59.177Z,15.43
2023-01-05T10:54:48.217Z,14.93
2023-01-05T10:57:35.973Z,11.80
2023-01-05T11:00:18.681Z,13.40
2023-01-05T11:02:58.888Z,12.60
2023-01-05T11:05:39.767Z,15.77
2023-01-05T11:08:19.211Z,11.32
2023-01-05T11:11:06.318Z,12.75
2023-01-05T11:13:40.534Z,10.88
2023-01-05T11:16:15.561Z,12.35
2023-01-05T11:18:53.423Z,12.43
2023-01-05T11:21:29.122Z,14.18
2023-01-05T11:23:59.913Z,12.50
2023-01-05T11:26:37.522Z,13.75
2023-01-05T11:29:15.269Z,13.23
2023-01-05T11:31:49.532Z,12.93
2023-01-05T11:34:33.515Z,10.10
2023-01-05T11:37:16.021Z,14.07
2023-01-05T11:39:52.591Z,13.52
2023-01-05T11:42:35.888Z,11.25
2023-01-05T11:45:25.021Z,9.93
2023-01-05T11:48:09.375Z,11.10
2023-01-05T11:50:56.831Z,11.30
2023-01-05T11:53:34.536Z,9.50
2023-01-05T11:56:10.576Z,10.57
2023-01-05T11:58:50.124Z,10.13
2023-01-05T12:01:49.115Z,9.70
2023-01-05T12:05:02.903Z,11.10
2023-01-05T12:07:36.673Z,9.35
2023-01-05T12:10:35.580Z,9.52
2023-01-05T12:13:49.317Z,9.03
2023-01-05T12:16:57.294Z,10.05
2023-01-05T12:20:09.897Z,9.13
2023-01-05T12:22:54.286Z,8.68
2023-01-05T12:25:49.875Z,8.73
2023-01-05T12:28:39.796Z,6.78
2023-01-05T12:34:00.092Z,7.73
2023-01-05T12:34:37.438Z,7.68
2023-01-05T12:37:31.412Z,6.68
2023-01-05T12:40:54.561Z,5.93
2023-01-05T12:43:41.485Z,6.65
2023-01-05T12:46:17.768Z,5.22
2023-01-05T12:49:14.946Z,4.22
2023-01-05T12:52:09.440Z,5.28
2023-01-05T12:54:45.120Z,5.50
2023-01-05T12:57:29.793Z,4.13
2023-01-05T13:00:15.332Z,3.83
2023-01-05T13:02:59.327Z,4.57
2023-01-05T13:05:45.914Z,3.60
2023-01-05T13:08:40.729Z,3.70
2023-01-05T13:11:22.237Z,3.28
2023-01-05T13:14:06.729Z,3.65
2023-01-05T13:16:45.689Z,3.22
2023-01-05T13:19:37.948Z,2.90
2023-01-05T13:22:16.560Z,3.42
2023-01-05T13:24:57.329Z,2.85
2023-01-05T13:27:29.226Z,2.72
2023-01-05T13:29:59.902Z,2.92
2023-01-05T13:32:56.007Z,3.35
2023-01-05T13:35:58.313Z,2.63
2023-01-05T13:39:10.335Z,2.60
2023-01-05T13:42:07.005Z,2.40
2023-01-05T13:44:59.603Z,3.22
2023-01-05T13:48:10.028Z,2.20
2023-01-05T13:50:49.741Z,1.60
2023-01-05T13:53:40.279Z,1.90
2023-01-05T13:56:26.979Z,2.15
2023-01-05T13:59:00.138Z,2.13
2023-01-05T14:01:46.511Z,1.70
2023-01-05T14:04:24.921Z,2.30
2023-01-05T14:07:01.291Z,2.63
2023-01-05T14:09:36.506Z,2.08
2023-01-05T14:12:11.686Z,2.00
2023-01-05T14:15:18.590Z,2.38
2023-01-05T14:18:02.040Z,1.83
2023-01-05T14:20:48.092Z,1.27
2023-01-05T14:23:30.855Z,2.05
2023-01-05T14:26:08.186Z,1.88
2023-01-05T14:28:38.532Z,1.45
2023-01-05T14:31:11.378Z,2.50
2023-01-05T14:33:57.966Z,1.47
2023-01-05T14:36:36.788Z,1.08
2023-01-05T14:39:20.887Z,1.75
2023-01-05T14:42:17.759Z,1.10
2023-01-05T14:44:51.609Z,1.10
2023-01-05T14:47:41.153Z,1.50
2023-01-05T14:53:59.287Z,1.70
2023-01-05T14:56:35.103Z,0.82
2023-01-05T15:02:05.050Z,1.67
2023-01-05T15:04:38.767Z,1.10
2023-01-05T15:10:26.692Z,0.95
2023-01-05T15:13:21.408Z,1.27
2023-01-05T15:16:06.076Z,1.38
2023-01-05T15:18:56.560Z,1.52
2023-01-05T15:21:40.442Z,0.77
2023-01-05T15:25:08.873Z,1.05
2023-01-05T15:27:52.291Z,0.93
2023-01-05T15:30:47.519Z,0.88
2023-01-05T15:33:57.584Z,0.63
2023-01-05T15:36:38.831Z,1.25
2023-01-05T15:39:36.122Z,1.00
2023-01-05T15:42:09.701Z,1.33
2023-01-05T15:44:56.273Z,0.82
2023-01-05T15:47:35.864Z,1.13
2023-01-05T15:50:46.161Z,0.70
2023-01-05T15:53:36.892Z,1.05
2023-01-05T15:56:33.251Z,0.50
2023-01-05T15:59:00.817Z,1.02
2023-01-05T16:01:32.213Z,0.65
2023-01-05T16:04:16.558Z,0.40
2023-01-05T16:07:17.975Z,0.43
2023-01-05T16:09:52.656Z,0.70
2023-01-05T16:12:38.574Z,0.70
2023-01-05T16:15:18.165Z,0.45
2023-01-05T16:17:54.456Z,0.77
2023-01-05T16:20:29.206Z,0.95
2023-01-05T16:23:14.271Z,0.50
2023-01-05T16:26:03.170Z,0.50
2023-01-05T16:28:32.818Z,0.65
2023-01-05T16:31:14.709Z,0.67
2023-01-05T16:34:31.426Z,0.60
2023-01-05T16:37:19.520Z,0.43
2023-01-05T16:40:01.985Z,0.50
2023-01-05T16:42:39.648Z,0.38
2023-01-05T16:45:34.085Z,1.05
2023-01-05T16:48:03.393Z,0.20
2023-01-05T16:50:30.490Z,0.40
2023-01-05T16:53:14.336Z,0.70
2023-01-05T16:55:44.823Z,0.60
2023-01-05T16:58:41.526Z,0.50
2023-01-05T17:01:15.596Z,0.70
2023-01-05T17:03:49.478Z,0.68
2023-01-05T17:06:30.227Z,0.88
2023-01-05T17:09:02.116Z,0.55
2023-01-05T17:11:38.314Z,0.80
2023-01-05T17:14:10.353Z,0.80
2023-01-05T17:16:48.232Z,0.65
2023-01-05T17:19:21.610Z,0.65
2023-01-05T17:22:01.112Z,0.57
2023-01-05T17:24:29.545Z,0.82
2023-01-05T17:26:57.930Z,1.10
2023-01-05T17:29:30.281Z,1.00
2023-01-05T17:32:23.137Z,1.15
2023-01-05T17:34:51.253Z,0.70
2023-01-05T17:37:19.303Z,0.70
2023-01-05T17:39:49.910Z,1.40
2023-01-05T17:42:43.466Z,1.58
2023-01-05T17:45:17.763Z,1.52
2023-01-05T17:47:48.581Z,1.70
2023-01-05T17:50:19.867Z,2.55
2023-01-05T17:52:47.141Z,2.10
2023-01-05T17:55:18.566Z,2.13
2023-01-05T17:57:51.307Z,2.13
2023-01-05T18:00:23.060Z,1.70
2023-01-05T18:02:52.639Z,1.77
2023-01-05T18:05:20.795Z,1.80
2023-01-05T18:07:48.380Z,1.75
2023-01-05T18:10:21.439Z,1.30
2023-01-05T18:12:49.937Z,2.38
2023-01-05T18:15:18.535Z,2.50
2023-01-05T18:17:45.639Z,2.45
2023-01-05T18:20:18.720Z,2.03
2023-01-05T18:22:49.994Z,2.20
2023-01-05T18:25:24.222Z,2.50
2023-01-05T18:27:52.894Z,2.25
2023-01-05T18:30:23.046Z,3.33
2023-01-05T18:32:54.046Z,2.22
2023-01-05T18:35:23.758Z,2.50
2023-01-05T18:37:53.924Z,3.13
2023-01-05T18:40:22.168Z,2.95
2023-01-05T18:42:51.269Z,3.00
2023-01-05T18:45:31.908Z,1.90
2023-01-05T18:47:59.584Z,3.28
2023-01-05T18:50:28.546Z,2.80
2023-01-05T18:53:01.142Z,3.08
2023-01-05T18:55:32.610Z,2.97
2023-01-05T18:58:01.828Z,2.13
2023-01-05T19:00:48.967Z,1.98
2023-01-05T19:03:21.947Z,2.63
2023-01-05T19:05:56.070Z,3.55
2023-01-05T19:08:30.058Z,2.70
2023-01-05T19:11:19.664Z,3.20
2023-01-05T19:13:53.984Z,3.50
2023-01-05T19:16:24.302Z,2.90
2023-01-05T19:18:54.806Z,3.00
2023-01-05T19:21:24.461Z,4.50
2023-01-05T19:24:00.999Z,2.57
2023-01-05T19:26:32.428Z,1.93
2023-01-05T19:29:03.075Z,3.13
2023-01-05T19:31:34.194Z,2.83
2023-01-05T19:34:06.979Z,4.00
2023-01-05T19:36:40.484Z,2.55
2023-01-05T19:39:15.219Z,3.85
2023-01-05T19:41:50.931Z,2.50
2023-01-05T19:44:24.244Z,3.67
2023-01-05T19:47:01.244Z,4.15
2023-01-05T19:49:28.642Z,3.37
2023-01-05T19:51:58.139Z,3.15
2023-01-05T19:54:32.170Z,3.77
2023-01-05T19:57:05.351Z,2.88
2023-01-05T19:59:37.782Z,2.97
2023-01-05T20:02:06.771Z,3.25
2023-01-05T20:04:36.452Z,2.80
2023-01-05T20:07:12.013Z,2.47
2023-01-05T20:09:42.616Z,4.07
2023-01-05T20:12:15.458Z,3.08
2023-01-05T20:14:46.343Z,2.72
2023-01-05T20:17:14.660Z,4.25
2023-01-05T20:19:42.043Z,2.70
2023-01-05T20:22:19.112Z,3.45
2023-01-05T20:24:50.642Z,3.28
2023-01-05T20:27:23.849Z,4.13
2023-01-05T20:29:52.845Z,4.00
2023-01-05T20:32:25.898Z,3.63
2023-01-05T20:35:01.425Z,3.85
2023-01-05T20:37:35.150Z,2.72
2023-01-05T20:40:03.258Z,3.97
2023-01-05T20:42:33.407Z,4.35
2023-01-05T20:45:04.092Z,3.72
2023-01-05T20:47:46.540Z,3.92
2023-01-05T20:50:17.427Z,3.13
2023-01-05T20:52:46.014Z,4.32
2023-01-05T20:55:17.861Z,4.13
2023-01-05T20:57:50.895Z,4.22
2023-01-05T21:00:21.937Z,4.55
2023-01-05T21:02:51.827Z,4.30
2023-01-05T21:05:19.011Z,3.65
2023-01-05T21:07:48.729Z,4.57
2023-01-05T21:10:15.907Z,4.37
2023-01-05T21:12:43.263Z,3.47
2023-01-05T21:15:14.698Z,3.63
2023-01-05T21:17:43.677Z,2.90
2023-01-05T21:20:14.034Z,2.92
2023-01-05T21:22:45.501Z,3.77
2023-01-05T21:25:14.957Z,4.47
2023-01-05T21:27:48.089Z,3.13
2023-01-05T21:30:16.892Z,3.10
2023-01-05T21:32:48.518Z,2.95
2023-01-05T21:35:23.747Z,2.72
2023-01-05T21:37:50.991Z,2.78
2023-01-05T21:40:27.778Z,2.55
2023-01-05T21:43:00.436Z,2.00
2023-01-05T21:45:32.691Z,3.33
2023-01-05T21:48:03.183Z,4.37
2023-01-05T21:50:49.787Z,3.30
2023-01-05T21:53:36.189Z,3.60
2023-01-05T21:56:27.684Z,3.63
2023-01-05T21:59:07.596Z,2.47
2023-01-05T22:01:40.737Z,4.00
2023-01-05T22:04:13.757Z,2.77
2023-01-05T22:06:44.149Z,2.25
2023-01-05T22:09:11.375Z,2.38
2023-01-05T22:11:40.785Z,2.35
2023-01-05T22:14:08.441Z,1.88
2023-01-05T22:16:37.334Z,2.63
2023-01-05T22:19:32.660Z,2.78
2023-01-05T22:22:06.955Z,3.90
2023-01-05T22:25:19.134Z,2.33
2023-01-05T22:28:10.803Z,2.38
2023-01-05T22:31:09.198Z,1.98
2023-01-05T22:34:05.907Z,2.75
2023-01-05T22:36:35.992Z,2.80
2023-01-05T22:39:04.479Z,1.63
2023-01-05T22:41:32.449Z,7.90
2023-01-05T22:44:02.492Z,4.20
2023-01-05T22:46:30.713Z,3.33
2023-01-05T22:48:58.699Z,2.00
2023-01-05T22:51:38.184Z,1.63
2023-01-05T22:54:05.536Z,3.00
2023-01-05T22:56:35.037Z,2.08
2023-01-05T22:59:02.490Z,3.40
2023-01-05T23:01:38.539Z,2.40
2023-01-05T23:04:07.243Z,3.30
2023-01-05T23:06:47.400Z,2.42
2023-01-05T23:09:20.875Z,3.13
2023-01-05T23:11:48.826Z,2.13
2023-01-05T23:14:18.965Z,2.80
2023-01-05T23:16:46.678Z,3.50
2023-01-05T23:19:16.804Z,2.13
2023-01-05T23:21:44.306Z,3.10
2023-01-05T23:24:12.575Z,2.35
2023-01-05T23:26:39.584Z,2.00
2023-01-05T23:29:06.609Z,2.90
2023-01-05T23:31:33.501Z,4.30
2023-01-05T23:34:00.590Z,2.80
2023-01-05T23:36:27.533Z,2.58
2023-01-05T23:38:54.468Z,2.72
2023-01-05T23:41:22.477Z,1.92
2023-01-05T23:43:50.485Z,1.88
2023-01-05T23:46:23.788Z,1.30
2023-01-05T23:48:52.386Z,2.22
2023-01-05T23:51:20.686Z,3.03
2023-01-05T23:53:52.085Z,2.38
2023-01-05T23:56:25.005Z,1.77
2023-01-05T23:59:05.918Z,2.35
